Time;durP1;ratioP1;P1;durP2;ratioP2;P2;SDS_P1;SDS_P2;PMS_P1;PMS_P2;Temp;Humidity;BMP_temperature;BMP_pressure;BME280_temperature;BME280_humidity;BME280_pressure;Samples;Min_cycle;Max_cycle;Signal;HPM_P1;HPM_P2
2022/12/09 04:41:38;;;;;;;37.42;19.73;;;;;;;2.09;100.00;99875.09;6191501;27;21335;-84
2022/12/09 04:44:41;;;;;;;44.05;21.65;;;;;;;2.08;100.00;99874.25;5343936;33;34783;-83
2022/12/09 04:47:43;;;;;;;39.00;19.90;;;;;;;1.99;100.00;99870.59;5344946;33;34007;-83
2022/12/09 04:50:47;;;;;;;39.55;20.52;;;;;;;2.02;100.00;99859.72;5345922;33;34667;-83
2022/12/09 04:53:50;;;;;;;40.95;20.90;;;;;;;2.01;100.00;99860.66;5342877;33;33891;-83
2022/12/09 04:56:53;;;;;;;40.88;21.02;;;;;;;2.00;100.00;99872.28;5343280;33;33964;-83
2022/12/09 04:59:57;;;;;;;40.40;21.00;;;;;;;2.10;100.00;99869.63;5351961;33;33847;-83
2022/12/09 05:02:59;;;;;;;38.72;20.92;;;;;;;2.11;100.00;99859.88;5355335;33;35335;-83
2022/12/09 05:06:05;;;;;;;42.58;21.40;;;;;;;2.16;100.00;99868.25;5341545;33;35189;-84
2022/12/09 05:09:12;;;;;;;41.90;21.48;;;;;;;2.10;100.00;99872.28;5338720;33;33710;-84
2022/12/09 05:12:16;;;;;;;44.88;21.90;;;;;;;2.16;100.00;99868.25;5329505;33;33983;-84
2022/12/09 05:15:19;;;;;;;43.83;20.05;;;;;;;2.19;100.00;99858.19;5342570;33;34406;-85
2022/12/09 05:18:22;;;;;;;40.85;20.48;;;;;;;2.16;100.00;99860.28;5342364;33;34188;-85
2022/12/09 05:21:28;;;;;;;40.53;21.10;;;;;;;2.17;100.00;99860.16;5342691;33;34184;-84
2022/12/09 05:24:32;;;;;;;43.03;21.90;;;;;;;2.23;100.00;99872.06;5344770;33;33830;-84
2022/12/09 05:27:35;;;;;;;40.83;20.75;;;;;;;2.28;100.00;99875.12;5328998;33;32163;-84
2022/12/09 05:30:38;;;;;;;47.88;21.55;;;;;;;2.43;100.00;99879.06;5338019;33;33906;-85
2022/12/09 05:33:49;;;;;;;38.80;19.70;;;;;;;2.38;100.00;99873.31;5328030;33;34057;-85
2022/12/09 05:36:53;;;;;;;38.05;20.08;;;;;;;2.35;100.00;99870.94;5311152;33;32184;-84
2022/12/09 05:39:56;;;;;;;37.47;20.88;;;;;;;2.38;100.00;99877.81;5339510;33;33701;-84
2022/12/09 05:42:59;;;;;;;40.85;20.83;;;;;;;2.38;100.00;99870.66;5341867;33;33679;-85
2022/12/09 05:46:05;;;;;;;41.00;21.30;;;;;;;2.36;100.00;99864.66;5341901;33;34028;-84
2022/12/09 05:49:08;;;;;;;43.63;21.55;;;;;;;2.38;100.00;99862.69;5329256;33;34104;-84
2022/12/09 05:52:13;;;;;;;45.97;22.05;;;;;;;2.36;100.00;99858.50;5347352;33;34310;-84
2022/12/09 05:55:16;;;;;;;40.20;21.92;;;;;;;2.47;100.00;99847.75;5345495;33;33973;-84
2022/12/09 05:58:20;;;;;;;40.47;21.17;;;;;;;2.49;100.00;99848.47;5330469;33;32493;-85
2022/12/09 06:01:24;;;;;;;43.25;22.10;;;;;;;2.45;100.00;99847.87;5344221;33;34662;-84
2022/12/09 06:04:28;;;;;;;41.53;21.58;;;;;;;2.46;100.00;99846.91;5345852;33;34100;-87
2022/12/09 06:07:31;;;;;;;43.95;21.70;;;;;;;2.51;100.00;99846.47;5336394;33;33038;-87
2022/12/09 06:10:38;;;;;;;43.78;22.23;;;;;;;2.53;100.00;99849.03;5349721;33;35473;-88
2022/12/09 06:13:42;;;;;;;41.78;21.08;;;;;;;2.57;100.00;99839.78;5345269;33;33964;-85
2022/12/09 06:16:45;;;;;;;41.28;20.55;;;;;;;2.54;100.00;99840.87;5332365;33;32540;-85
2022/12/09 06:19:48;;;;;;;44.03;21.33;;;;;;;2.53;100.00;99841.03;5345383;33;34662;-85
2022/12/09 06:22:52;;;;;;;41.30;20.95;;;;;;;2.53;100.00;99839.22;5349386;33;34012;-85
2022/12/09 06:25:55;;;;;;;42.30;21.17;;;;;;;2.60;100.00;99839.50;5344095;33;33582;-85
2022/12/09 06:28:59;;;;;;;43.25;22.05;;;;;;;2.61;100.00;99836.72;5343776;33;33536;-84
2022/12/09 06:32:03;;;;;;;38.33;21.35;;;;;;;2.65;100.00;99831.94;5343772;33;33992;-84
2022/12/09 06:35:06;;;;;;;41.30;21.55;;;;;;;2.89;100.00;99831.50;5343585;33;34199;-85
2022/12/09 06:38:10;;;;;;;43.33;21.33;;;;;;;2.81;100.00;99829.56;5341359;33;34003;-84
2022/12/09 06:41:14;;;;;;;39.97;20.30;;;;;;;2.76;100.00;99829.16;5328677;33;32745;-84
2022/12/09 06:44:17;;;;;;;38.03;22.08;;;;;;;2.68;100.00;99831.66;5341928;33;34458;-84
2022/12/09 06:47:26;;;;;;;45.53;22.60;;;;;;;2.64;100.00;99835.59;5349038;33;35338;-84
2022/12/09 06:50:28;;;;;;;43.78;21.95;;;;;;;2.62;100.00;99830.41;5344295;33;34340;-84
2022/12/09 06:53:32;;;;;;;44.40;24.30;;;;;;;2.63;100.00;99836.56;5330859;33;32605;-84
2022/12/09 06:56:35;;;;;;;42.25;22.42;;;;;;;2.69;100.00;99830.69;5342777;33;33857;-84
2022/12/09 06:59:38;;;;;;;48.45;22.92;;;;;;;2.68;100.00;99831.66;5335465;33;263859;-85
2022/12/09 07:02:41;;;;;;;41.37;22.83;;;;;;;2.70;100.00;99829.72;5349050;33;34000;-85
2022/12/09 07:05:44;;;;;;;55.63;23.27;;;;;;;2.71;100.00;99828.72;5355004;33;34219;-85
2022/12/09 07:08:47;;;;;;;47.72;22.73;;;;;;;2.67;100.00;99830.00;5342920;33;34427;-84
2022/12/09 07:11:52;;;;;;;44.53;21.92;;;;;;;2.79;100.00;99830.69;5343376;33;33997;-84
2022/12/09 07:14:56;;;;;;;42.60;21.67;;;;;;;2.75;100.00;99831.94;5345072;33;33668;-85
2022/12/09 07:17:59;;;;;;;46.10;23.35;;;;;;;2.85;100.00;99820.31;5343073;33;34773;-85
2022/12/09 07:21:16;;;;;;;48.38;23.40;;;;;;;2.79;100.00;99818.22;5343415;33;34264;-85
2022/12/09 07:24:20;;;;;;;46.97;22.95;;;;;;;2.77;100.00;99817.53;5342478;33;34756;-85
2022/12/09 07:27:23;;;;;;;48.28;23.42;;;;;;;2.75;100.00;99811.53;5341906;33;34703;-85
2022/12/09 07:30:26;;;;;;;44.30;23.17;;;;;;;2.83;100.00;99819.63;5329824;33;32251;-85
2022/12/09 07:33:30;;;;;;;55.65;23.45;;;;;;;2.85;100.00;99812.34;5340756;33;34747;-85
2022/12/09 07:36:34;;;;;;;45.08;23.12;;;;;;;2.79;100.00;99814.75;5341907;33;33471;-85
2022/12/09 07:39:37;;;;;;;40.60;22.58;;;;;;;2.79;100.00;99820.88;5340185;33;34469;-85
2022/12/09 07:42:41;;;;;;;47.25;21.70;;;;;;;2.75;100.00;99815.97;5339718;33;33932;-85
2022/12/09 07:45:44;;;;;;;43.28;22.85;;;;;;;2.72;100.00;99814.44;5340290;33;33655;-85
2022/12/09 07:48:48;;;;;;;44.42;21.83;;;;;;;2.84;100.00;99815.16;5328147;33;32241;-85
2022/12/09 07:51:51;;;;;;;47.22;21.65;;;;;;;2.80;100.00;99822.56;5342145;33;34809;-85
2022/12/09 07:54:58;;;;;;;43.75;21.95;;;;;;;2.77;100.00;99814.88;5340829;33;34677;-85
2022/12/09 07:58:00;;;;;;;42.00;22.10;;;;;;;2.76;100.00;99812.38;5339823;33;34674;-85
2022/12/09 08:01:10;;;;;;;46.63;21.37;;;;;;;2.86;100.00;99808.69;5343403;33;33961;-88
2022/12/09 08:04:13;;;;;;;;;;;;;;;2.93;100.00;99815.12;5346319;33;33856;-85
2022/12/09 08:07:16;;;;;;;42.08;20.40;;;;;;;2.96;100.00;99808.69;5343613;33;34078;-85
2022/12/09 08:10:20;;;;;;;44.35;21.65;;;;;;;3.00;100.00;99807.41;5342282;33;33810;-85
2022/12/09 08:13:22;;;;;;;41.63;21.60;;;;;;;3.07;100.00;99807.69;5342926;33;35631;-85
2022/12/09 08:16:26;;;;;;;44.13;21.17;;;;;;;3.12;100.00;99800.09;5342304;33;34403;-85
2022/12/09 08:19:29;;;;;;;38.97;19.45;;;;;;;3.27;100.00;99796.00;5342024;33;34207;-85
2022/12/09 08:22:33;;;;;;;41.85;21.58;;;;;;;3.28;100.00;99784.41;5336225;33;34758;-84
2022/12/09 08:25:36;;;;;;;43.65;21.08;;;;;;;3.22;100.00;99782.31;5343334;33;34310;-84
2022/12/09 08:28:40;;;;;;;44.50;22.05;;;;;;;3.28;100.00;99786.22;5329488;33;33313;-84
2022/12/09 08:31:43;;;;;;;43.47;21.37;;;;;;;3.38;100.00;99784.34;5342433;33;34952;-84
2022/12/09 08:34:47;;;;;;;39.67;20.30;;;;;;;3.47;100.00;99782.63;5342762;33;33924;-84
2022/12/09 08:37:50;;;;;;;37.83;20.60;;;;;;;3.51;100.00;99781.34;5342209;33;33995;-86
2022/12/09 08:40:53;;;;;;;40.80;20.48;;;;;;;3.57;100.00;99775.47;5342313;33;33933;-83
2022/12/09 08:43:56;;;;;;;39.08;19.58;;;;;;;3.58;100.00;99769.12;5341282;33;34039;-84
2022/12/09 08:46:59;;;;;;;39.15;18.65;;;;;;;3.63;100.00;99765.03;5342043;33;34375;-83
2022/12/09 08:50:03;;;;;;;35.88;18.67;;;;;;;3.62;100.00;99766.00;5341014;33;34716;-83
2022/12/09 08:53:07;;;;;;;35.65;19.58;;;;;;;3.69;100.00;99768.09;5338067;33;34093;-83
2022/12/09 08:56:11;;;;;;;37.95;18.80;;;;;;;3.61;100.00;99761.69;5340840;33;34591;-84
2022/12/09 08:59:16;;;;;;;36.13;19.48;;;;;;;3.54;100.00;99759.75;5340547;33;33959;-84
2022/12/09 09:02:19;;;;;;;39.60;19.42;;;;;;;3.56;100.00;99749.81;5341797;33;34770;-84
2022/12/09 09:05:22;;;;;;;33.70;17.12;;;;;;;3.57;100.00;99746.19;5343660;33;34379;-84
2022/12/09 09:08:26;;;;;;;35.60;18.52;;;;;;;3.57;100.00;99748.84;5350612;33;34327;-84
2022/12/09 09:11:30;;;;;;;36.70;18.23;;;;;;;3.61;100.00;99743.06;5340336;33;35311;-84
2022/12/09 09:14:33;;;;;;;35.00;16.90;;;;;;;3.63;100.00;99743.75;5326885;33;32294;-85
2022/12/09 09:17:36;;;;;;;37.15;17.70;;;;;;;3.51;100.00;99730.78;5340268;33;33867;-85
2022/12/09 09:20:47;;;;;;;33.72;17.37;;;;;;;3.47;100.00;99729.41;5342369;33;34246;-84
2022/12/09 09:23:51;;;;;;;35.58;17.85;;;;;;;3.53;100.00;99721.66;5331633;33;33366;-85
2022/12/09 09:26:55;;;;;;;34.78;17.12;;;;;;;3.50;100.00;99721.97;5348617;33;34402;-84
2022/12/09 09:29:58;;;;;;;34.60;17.55;;;;;;;3.51;100.00;99723.66;5342255;33;34210;-84
2022/12/09 09:33:02;;;;;;;35.63;17.25;;;;;;;3.58;100.00;99718.56;5340009;33;33852;-84
2022/12/09 09:36:07;;;;;;;38.35;18.05;;;;;;;3.57;100.00;99725.72;5340623;33;34626;-84
2022/12/09 09:39:12;;;;;;;33.45;17.37;;;;;;;3.51;100.00;99715.69;5340788;33;34343;-83
2022/12/09 09:42:22;;;;;;;33.13;16.37;;;;;;;3.50;100.00;99716.63;5340004;33;34415;-84
2022/12/09 09:45:25;;;;;;;31.48;16.58;;;;;;;3.54;100.00;99703.87;5338983;33;34177;-85
2022/12/09 09:48:31;;;;;;;31.98;16.00;;;;;;;3.52;100.00;99704.03;5339386;33;34161;-85
2022/12/09 09:51:41;;;;;;;31.00;14.98;;;;;;;3.53;100.00;99695.03;5338358;33;33879;-87
2022/12/09 09:54:52;;;;;;;35.13;16.73;;;;;;;3.53;100.00;99700.38;5337566;33;32528;-84
2022/12/09 09:58:04;;;;;;;34.88;17.12;;;;;;;3.55;100.00;99698.41;5339869;33;33662;-87
2022/12/09 10:01:12;;;;;;;32.78;16.25;;;;;;;3.59;100.00;99691.78;5328335;33;32830;-85
2022/12/09 10:04:27;;;;;;;30.42;15.10;;;;;;;3.55;100.00;99689.59;5343281;33;34544;-86
2022/12/09 10:07:40;;;;;;;29.90;14.27;;;;;;;3.56;100.00;99684.09;5341970;33;32272;-83
2022/12/09 10:11:13;;;;;;;29.42;15.60;;;;;;;3.46;100.00;99670.03;5342216;33;35051;-83
2022/12/09 10:14:27;;;;;;;35.78;16.90;;;;;;;3.53;100.00;99664.94;5345114;33;34770;-83
2022/12/09 10:17:34;;;;;;;36.28;17.08;;;;;;;3.62;100.00;99656.06;5351825;33;33982;-83
2022/12/09 10:20:39;;;;;;;38.55;17.80;;;;;;;3.58;100.00;99644.06;5351655;33;35905;-83
2022/12/09 10:23:44;;;;;;;37.95;17.87;;;;;;;3.59;100.00;99643.06;5353474;33;34087;-83
2022/12/09 10:27:00;;;;;;;33.72;16.12;;;;;;;3.64;100.00;99624.81;5342712;33;33760;-83
2022/12/09 10:30:10;;;;;;;33.08;16.33;;;;;;;3.63;100.00;99626.63;5327433;33;32466;-83
2022/12/09 10:33:17;;;;;;;29.73;14.45;;;;;;;3.72;100.00;99606.25;5324142;33;32835;-83
2022/12/09 10:36:24;;;;;;;27.90;14.05;;;;;;;3.76;100.00;99612.94;5320484;33;32265;-83
2022/12/09 10:39:33;;;;;;;28.77;15.05;;;;;;;3.71;100.00;99595.75;5338764;33;34525;-88
2022/12/09 10:46:22;;;;;;;32.08;16.48;;;;;;;3.64;100.00;99579.56;5341481;33;35156;-84
2022/12/09 10:49:26;;;;;;;31.10;15.75;;;;;;;3.69;100.00;99563.16;5338810;33;34355;-84
2022/12/09 10:52:40;;;;;;;30.30;15.15;;;;;;;3.66;100.00;99556.28;5341004;33;35552;-83
2022/12/09 10:55:49;;;;;;;29.20;15.07;;;;;;;3.67;100.00;99544.66;5342282;33;34332;-83
2022/12/09 10:59:12;;;;;;;29.40;14.13;;;;;;;3.67;100.00;99536.66;5342111;33;34558;-83
2022/12/09 11:02:19;;;;;;;30.12;15.60;;;;;;;3.65;100.00;99522.66;5342739;33;33924;-83
2022/12/09 11:05:26;;;;;;;27.40;15.05;;;;;;;3.60;100.00;99520.47;5342870;33;33860;-84
2022/12/09 11:08:30;;;;;;;25.40;13.77;;;;;;;3.62;100.00;99521.16;5341500;33;34860;-83
2022/12/09 11:11:52;;;;;;;25.30;13.85;;;;;;;3.66;100.00;99532.34;5348530;33;35130;-83
2022/12/09 11:15:06;;;;;;;27.62;13.82;;;;;;;3.71;100.00;99522.03;5351442;33;33563;-82
2022/12/09 11:18:23;;;;;;;25.35;13.93;;;;;;;3.87;100.00;99508.03;5330634;33;32646;-82
2022/12/09 11:21:34;;;;;;;24.60;14.75;;;;;;;3.74;100.00;99504.94;5337140;33;34524;-83
2022/12/09 11:24:39;;;;;;;28.87;13.82;;;;;;;3.71;100.00;99494.59;5343082;33;34082;-83
2022/12/09 11:27:53;;;;;;;25.75;13.82;;;;;;;3.69;100.00;99485.94;5342893;33;34451;-83
2022/12/09 11:31:07;;;;;;;27.20;13.57;;;;;;;3.76;100.00;99490.47;5343941;33;35107;-83
2022/12/09 11:34:30;;;;;;;27.87;14.90;;;;;;;3.72;100.00;99486.47;5342030;33;34401;-83
2022/12/09 11:37:37;;;;;;;28.12;13.95;;;;;;;3.76;100.00;99492.31;5341753;33;33573;-83
2022/12/09 11:40:40;;;;;;;27.77;14.48;;;;;;;3.78;100.00;99495.66;5323566;33;32569;-83
2022/12/09 11:43:47;;;;;;;25.40;13.82;;;;;;;3.81;100.00;99477.53;5329106;33;32717;-83
2022/12/09 11:47:12;;;;;;;30.95;15.82;;;;;;;3.76;100.00;99487.81;5342787;33;34327;-83
2022/12/09 11:50:19;;;;;;;26.98;14.10;;;;;;;3.74;100.00;99478.31;5343035;33;34357;-83
2022/12/09 11:53:30;;;;;;;29.60;15.15;;;;;;;3.74;100.00;99462.34;5344219;33;34831;-84
2022/12/09 11:56:34;;;;;;;29.50;15.57;;;;;;;3.70;100.00;99456.50;5342681;33;33892;-83
2022/12/09 11:59:47;;;;;;;32.20;16.62;;;;;;;3.74;100.00;99460.50;5341714;33;33905;-83
2022/12/09 12:03:03;;;;;;;31.37;16.55;;;;;;;3.87;100.00;99457.44;5342639;33;34296;-83
2022/12/09 12:06:18;;;;;;;31.12;16.48;;;;;;;3.78;100.00;99469.88;5329044;33;32808;-83
2022/12/09 12:09:28;;;;;;;27.20;14.55;;;;;;;3.72;100.00;99461.69;5342760;33;34764;-85
2022/12/09 12:12:52;;;;;;;28.27;13.13;;;;;;;3.70;100.00;99461.81;5342893;33;34146;-83
2022/12/09 12:16:07;;;;;;;27.00;13.57;;;;;;;3.64;100.00;99442.00;5325893;33;33932;-83
2022/12/09 12:19:12;;;;;;;23.77;11.77;;;;;;;3.56;100.00;99446.41;5342688;33;34315;-83
2022/12/09 12:22:47;;;;;;;22.42;12.18;;;;;;;3.63;100.00;99450.97;5342647;33;34556;-83
2022/12/09 12:26:17;;;;;;;22.20;11.10;;;;;;;3.63;100.00;99447.47;5323626;33;33860;-83
2022/12/09 12:29:32;;;;;;;21.12;11.35;;;;;;;3.52;100.00;99442.41;5339930;33;33549;-83
2022/12/09 12:32:44;;;;;;;18.92;10.68;;;;;;;3.49;100.00;99438.22;5328307;33;32293;-83
2022/12/09 12:36:25;;;;;;;26.27;11.55;;;;;;;3.51;100.00;99430.94;5343788;33;33955;-82
2022/12/09 12:39:41;;;;;;;22.40;11.60;;;;;;;3.51;100.00;99430.06;5342986;33;35021;-83
2022/12/09 12:46:48;;;;;;;24.37;12.60;;;;;;;3.43;100.00;99419.41;5335039;33;34762;-83
2022/12/09 12:49:59;;;;;;;25.02;13.10;;;;;;;3.43;100.00;99417.56;5342991;33;33849;-83
2022/12/09 12:53:08;;;;;;;28.60;13.18;;;;;;;3.52;100.00;99399.84;5359329;33;33894;-82
2022/12/09 12:56:18;;;;;;;29.83;12.95;;;;;;;3.41;100.00;99408.91;5338941;33;34092;-83
2022/12/09 12:59:32;;;;;;;24.25;12.50;;;;;;;3.40;100.00;99410.72;5343732;33;34661;-83
2022/12/09 13:02:41;;;;;;;24.00;13.10;;;;;;;3.45;100.00;99414.75;5340908;33;34271;-83
2022/12/09 13:05:49;;;;;;;23.90;12.90;;;;;;;3.29;100.00;99397.69;5327926;33;32341;-82
2022/12/09 13:08:57;;;;;;;23.38;11.75;;;;;;;3.37;100.00;99386.28;5339236;33;34025;-83
2022/12/09 13:12:52;;;;;;;26.15;13.07;;;;;;;3.32;100.00;99397.38;5328717;33;33669;-87
2022/12/09 13:16:00;;;;;;;27.85;12.48;;;;;;;3.28;100.00;99401.34;5342548;33;33988;-83
2022/12/09 13:19:33;;;;;;;27.27;13.02;;;;;;;3.29;100.00;99396.84;5341306;33;33878;-83
2022/12/09 13:22:48;;;;;;;35.30;13.15;;;;;;;3.31;100.00;99392.22;5345618;33;33429;-83
2022/12/09 13:26:14;;;;;;;27.77;13.93;;;;;;;3.36;100.00;99376.59;5349887;33;34012;-83
2022/12/09 13:29:46;;;;;;;28.45;14.05;;;;;;;3.35;100.00;99381.09;5342235;33;33541;-83
2022/12/09 13:33:11;;;;;;;28.90;13.38;;;;;;;3.38;100.00;99386.09;5327614;33;32515;-86
2022/12/09 13:36:14;;;;;;;32.63;14.30;;;;;;;3.36;100.00;99384.56;5341901;33;34306;-83
2022/12/09 13:39:38;;;;;;;32.10;14.52;;;;;;;3.31;100.00;99390.38;5329507;33;32658;-83
2022/12/09 13:42:57;;;;;;;29.60;12.80;;;;;;;3.29;100.00;99389.69;5344218;33;33950;-83
2022/12/09 13:46:01;;;;;;;26.52;14.02;;;;;;;3.31;100.00;99374.41;5342931;33;34690;-83
2022/12/09 13:49:09;;;;;;;31.15;12.93;;;;;;;3.35;100.00;99373.09;5331776;33;33340;-83
2022/12/09 13:52:58;;;;;;;35.07;14.47;;;;;;;3.30;100.00;99364.75;5341917;33;33942;-83
2022/12/09 13:56:17;;;;;;;29.77;14.05;;;;;;;3.37;100.00;99367.66;5312215;33;32522;-83
2022/12/09 13:59:45;;;;;;;25.60;12.32;;;;;;;3.35;100.00;99364.28;5341470;33;34018;-83
2022/12/09 14:03:00;;;;;;;30.35;13.07;;;;;;;3.29;100.00;99363.09;5342109;33;34572;-87
2022/12/09 14:06:18;;;;;;;31.50;12.85;;;;;;;3.23;100.00;99362.88;5340852;33;34993;-83
2022/12/09 14:09:45;;;;;;;24.45;12.27;;;;;;;3.22;100.00;99354.09;5341887;33;34811;-83
2022/12/09 14:12:48;;;;;;;27.20;13.13;;;;;;;3.24;100.00;99353.91;5341056;33;34385;-83
2022/12/09 14:16:11;;;;;;;31.52;14.23;;;;;;;3.18;100.00;99348.22;5341440;33;35181;-84
2022/12/09 14:19:23;;;;;;;25.48;12.30;;;;;;;3.11;100.00;99359.66;5343337;33;34484;-82
2022/12/09 14:22:25;;;;;;;27.23;13.23;;;;;;;3.18;100.00;99347.38;5343907;33;34163;-83
2022/12/09 14:25:32;;;;;;;31.45;13.35;;;;;;;3.11;100.00;99341.03;5343782;33;33853;-83
2022/12/09 14:28:39;;;;;;;26.67;12.57;;;;;;;3.19;100.00;99335.78;5343727;33;33643;-85
2022/12/09 14:31:49;;;;;;;27.00;12.93;;;;;;;3.15;100.00;99327.25;5343859;33;34778;-84
2022/12/09 14:35:08;;;;;;;28.20;13.13;;;;;;;3.22;100.00;99331.94;5330657;33;32258;-83
2022/12/09 14:38:42;;;;;;;25.33;12.50;;;;;;;3.22;100.00;99334.59;5331317;33;32647;-84
2022/12/09 14:42:19;;;;;;;26.58;11.40;;;;;;;3.28;100.00;99331.34;5343864;33;34247;-84
2022/12/09 14:45:40;;;;;;;26.48;12.23;;;;;;;3.28;100.00;99308.25;5346444;33;34207;-85
2022/12/09 14:48:50;;;;;;;29.27;12.88;;;;;;;3.24;100.00;99301.53;5344114;33;34229;-83
2022/12/09 14:52:16;;;;;;;24.27;12.45;;;;;;;3.24;100.00;99293.56;5337794;33;32899;-83
2022/12/09 14:55:22;;;;;;;26.23;12.70;;;;;;;3.30;100.00;99292.94;5357175;33;34286;-84
2022/12/09 14:58:26;;;;;;;25.60;12.32;;;;;;;3.25;100.00;99291.75;5344235;33;34034;-85
2022/12/09 15:01:29;;;;;;;27.35;12.60;;;;;;;3.27;100.00;99287.09;5344688;33;33914;-84
2022/12/09 15:04:41;;;;;;;23.75;13.18;;;;;;;3.28;100.00;99265.69;5354955;33;33696;-83
2022/12/09 15:07:44;;;;;;;25.42;13.18;;;;;;;3.33;100.00;99267.84;5357361;33;35237;-83
2022/12/09 15:10:47;;;;;;;29.23;12.98;;;;;;;3.32;100.00;99260.88;5354222;33;34903;-82
2022/12/09 15:13:52;;;;;;;26.58;12.60;;;;;;;3.33;100.00;99257.19;5343066;33;33984;-83
2022/12/09 15:16:56;;;;;;;29.02;12.65;;;;;;;3.33;100.00;99263.34;5343078;33;33691;-83
2022/12/09 15:20:00;;;;;;;23.48;12.18;;;;;;;3.24;100.00;99266.12;5343416;33;35391;-83
2022/12/09 15:23:18;;;;;;;25.80;12.35;;;;;;;3.28;100.00;99267.50;5329804;33;33964;-83
2022/12/09 15:26:28;;;;;;;28.92;13.65;;;;;;;3.32;100.00;99264.34;5342787;33;34089;-83
2022/12/09 15:29:32;;;;;;;25.23;12.25;;;;;;;3.36;100.00;99251.56;5353002;33;34015;-86
2022/12/09 15:32:38;;;;;;;24.60;12.73;;;;;;;3.41;100.00;99249.28;5347072;33;35003;-87
2022/12/09 15:35:47;;;;;;;24.10;12.00;;;;;;;3.47;100.00;99250.47;5343664;33;34041;-83
2022/12/09 15:38:59;;;;;;;29.30;13.20;;;;;;;3.46;100.00;99249.62;5343938;33;33916;-83
2022/12/09 15:42:09;;;;;;;25.23;12.43;;;;;;;3.47;100.00;99234.50;5352552;33;33700;-83
2022/12/09 15:45:17;;;;;;;26.95;12.68;;;;;;;3.45;100.00;99231.97;5329628;33;34432;-83
2022/12/09 15:48:26;;;;;;;26.60;12.05;;;;;;;3.49;100.00;99232.50;5343008;33;35341;-82
2022/12/09 15:51:31;;;;;;;27.45;12.35;;;;;;;3.57;100.00;99220.06;5343091;33;34908;-82
2022/12/09 15:54:40;;;;;;;27.95;13.57;;;;;;;3.54;100.00;99211.56;5330760;33;33612;-83
2022/12/09 15:57:45;;;;;;;28.90;12.93;;;;;;;3.62;100.00;99215.06;5342593;33;33577;-83
2022/12/09 16:00:50;;;;;;;26.98;12.43;;;;;;;3.64;100.00;99198.97;5342838;33;34645;-83
2022/12/09 16:03:54;;;;;;;27.65;13.15;;;;;;;3.57;100.00;99188.16;5343509;33;34687;-83
2022/12/09 16:07:04;;;;;;;27.42;13.23;;;;;;;3.56;100.00;99186.44;5341785;33;33993;-83
2022/12/09 16:10:13;;;;;;;26.75;13.40;;;;;;;3.52;100.00;99185.13;5328901;33;32281;-83
2022/12/09 16:13:18;;;;;;;23.20;12.13;;;;;;;3.58;100.00;99189.78;5342364;33;34339;-83
2022/12/09 16:16:25;;;;;;;24.67;12.27;;;;;;;3.57;100.00;99185.47;5342460;33;34444;-83
2022/12/09 16:19:37;;;;;;;26.55;11.95;;;;;;;3.59;100.00;99177.31;5342298;33;33923;-83
2022/12/09 16:22:40;;;;;;;23.42;12.55;;;;;;;3.67;100.00;99172.03;5342484;33;34345;-83
2022/12/09 16:25:47;;;;;;;25.60;12.32;;;;;;;3.67;100.00;99168.53;5342320;33;33965;-83
2022/12/09 16:28:55;;;;;;;25.98;12.63;;;;;;;3.67;100.00;99158.72;5342438;33;34858;-83
2022/12/09 16:32:24;;;;;;;26.87;12.88;;;;;;;3.63;100.00;99160.88;5342508;33;33581;-83
2022/12/09 16:35:39;;;;;;;25.27;12.33;;;;;;;3.78;100.00;99157.56;5342473;33;34301;-83
2022/12/09 16:39:12;;;;;;;26.02;12.63;;;;;;;3.77;100.00;99154.09;5342444;33;34277;-83
2022/12/09 16:42:20;;;;;;;23.92;12.05;;;;;;;3.74;100.00;99146.41;5334232;33;34013;-83
2022/12/09 16:45:33;;;;;;;27.40;12.85;;;;;;;3.70;100.00;99139.75;5342355;33;33715;-83
2022/12/09 16:48:36;;;;;;;28.50;13.23;;;;;;;3.69;100.00;99138.09;5342310;33;35299;-83
2022/12/09 16:51:39;;;;;;;27.17;13.27;;;;;;;3.77;100.00;99127.47;5342125;33;33876;-83
2022/12/09 16:54:44;;;;;;;27.10;12.57;;;;;;;3.76;100.00;99120.47;5343728;33;33810;-83
2022/12/09 16:57:49;;;;;;;27.23;14.63;;;;;;;3.84;100.00;99115.16;5344411;33;34110;-83
2022/12/09 17:00:52;;;;;;;30.35;15.02;;;;;;;3.87;100.00;99106.81;5332523;33;32411;-83
